createdAt,value
2019-04-16T00:00:14.173Z,101865.30
2019-04-16T00:02:52.128Z,101857.00
2019-04-16T00:05:29.978Z,101857.70
2019-04-16T00:08:19.360Z,101860.59
2019-04-16T00:10:43.716Z,101855.39
2019-04-16T00:13:29.585Z,101852.22
2019-04-16T00:16:02.965Z,101845.36
2019-04-16T00:18:34.752Z,101841.31
2019-04-16T00:21:10.830Z,101838.43
2019-04-16T00:23:46.695Z,101839.64
2019-04-16T00:26:17.930Z,101841.62
2019-04-16T00:28:49.580Z,101837.72
2019-04-16T00:31:21.492Z,101835.36
2019-04-16T00:33:53.441Z,101837.73
2019-04-16T00:36:25.273Z,101831.83
2019-04-16T00:38:58.122Z,101833.44
2019-04-16T00:41:29.902Z,101831.48
2019-04-16T00:44:01.744Z,101829.95
2019-04-16T00:46:33.645Z,101828.09
2019-04-16T00:49:05.498Z,101822.78
2019-04-16T00:51:37.348Z,101829.61
2019-04-16T00:54:10.440Z,101828.55
2019-04-16T00:56:43.515Z,101823.59
2019-04-16T00:59:17.241Z,101828.09
2019-04-16T01:01:49.011Z,101817.58
2019-04-16T01:04:20.930Z,101822.44
2019-04-16T01:06:52.694Z,101823.13
2019-04-16T01:09:24.619Z,101825.11
2019-04-16T01:11:56.702Z,101821.56
2019-04-16T01:14:28.489Z,101822.37
2019-04-16T01:17:03.891Z,101823.02
2019-04-16T01:19:35.513Z,101826.86
2019-04-16T01:22:07.996Z,101823.58
2019-04-16T01:24:40.753Z,101819.78
2019-04-16T01:27:12.662Z,101820.95
2019-04-16T01:29:44.572Z,101817.96
2019-04-16T01:32:21.026Z,101819.28
2019-04-16T01:34:57.570Z,101821.42
2019-04-16T01:37:30.305Z,101820.14
2019-04-16T01:40:03.848Z,101825.66
2019-04-16T01:42:35.701Z,101819.60
2019-04-16T01:45:08.509Z,101827.77
2019-04-16T01:47:40.263Z,101828.02
2019-04-16T01:50:13.857Z,101827.73
2019-04-16T01:52:49.467Z,101826.45
2019-04-16T01:55:18.990Z,101823.73
2019-04-16T01:57:50.812Z,101823.73
2019-04-16T02:00:22.661Z,101825.97
2019-04-16T02:02:54.499Z,101819.42
2019-04-16T02:05:26.273Z,101821.55
2019-04-16T02:07:59.289Z,101818.39
2019-04-16T02:10:31.513Z,101820.10
2019-04-16T02:13:03.302Z,101819.06
2019-04-16T02:15:35.065Z,101818.16
2019-04-16T02:18:06.828Z,101810.93
2019-04-16T02:20:39.592Z,101814.35
2019-04-16T02:23:13.525Z,101817.34
2019-04-16T02:25:45.039Z,101824.30
2019-04-16T02:28:16.881Z,101819.47
2019-04-16T02:30:48.748Z,101819.98
2019-04-16T02:33:20.549Z,101819.06
2019-04-16T02:35:52.403Z,101819.06
2019-04-16T02:38:24.234Z,101827.34
2019-04-16T02:40:56.006Z,101827.34
2019-04-16T02:43:27.878Z,101799.28
2019-04-16T02:45:59.655Z,101822.36
2019-04-16T02:48:31.501Z,101823.16
2019-04-16T02:51:20.058Z,101815.94
2019-04-16T02:54:09.996Z,101823.02
2019-04-16T02:56:59.722Z,101821.59
2019-04-16T02:59:46.001Z,101822.11
2019-04-16T03:02:15.922Z,101821.85
2019-04-16T03:05:01.714Z,101821.85
2019-04-16T03:07:33.665Z,101815.83
2019-04-16T03:10:05.903Z,101827.22
2019-04-16T03:12:37.748Z,101827.22
2019-04-16T03:15:09.607Z,101827.34
2019-04-16T03:17:43.743Z,101821.83
2019-04-16T03:20:20.755Z,101820.25
2019-04-16T03:22:53.768Z,101774.62
2019-04-16T03:25:25.547Z,101811.48
2019-04-16T03:27:57.533Z,101815.42
2019-04-16T03:30:30.456Z,101815.29
2019-04-16T03:33:10.266Z,101816.20
2019-04-16T03:35:35.924Z,101820.53
2019-04-16T03:38:08.041Z,101821.30
2019-04-16T03:40:40.044Z,101823.91
2019-04-16T03:43:13.714Z,101822.59
2019-04-16T03:45:47.581Z,101821.81
2019-04-16T03:48:20.650Z,101818.82
2019-04-16T03:50:53.317Z,101826.80
2019-04-16T03:53:25.245Z,101825.73
2019-04-16T03:55:58.315Z,101824.30
2019-04-16T03:58:30.538Z,101824.95
2019-04-16T04:01:02.571Z,101829.43
2019-04-16T04:03:34.360Z,101834.67
2019-04-16T04:06:07.873Z,101834.39
2019-04-16T04:08:39.640Z,101831.11
2019-04-16T04:11:11.455Z,101832.17
2019-04-16T04:13:43.233Z,101826.14
2019-04-16T04:16:15.689Z,101831.50
2019-04-16T04:18:47.577Z,101831.75
2019-04-16T04:21:22.102Z,101831.75
2019-04-16T04:23:52.950Z,101833.34
2019-04-16T04:26:24.934Z,101847.36
2019-04-16T04:28:56.793Z,101838.30
2019-04-16T04:31:32.030Z,101843.02
2019-04-16T04:34:02.056Z,101849.19
2019-04-16T04:36:34.997Z,101848.75
2019-04-16T04:39:09.923Z,101849.03
2019-04-16T04:41:42.287Z,101848.78
2019-04-16T04:44:14.129Z,101856.89
2019-04-16T04:46:46.866Z,101857.95
2019-04-16T04:49:18.803Z,101852.95
2019-04-16T04:51:50.609Z,101858.47
2019-04-16T04:54:23.499Z,101856.25
2019-04-16T04:56:56.397Z,101863.50
2019-04-16T04:59:29.007Z,101860.09
2019-04-16T05:02:01.080Z,101860.08
2019-04-16T05:04:37.642Z,101864.56
2019-04-16T05:07:11.297Z,101861.94
2019-04-16T05:09:43.134Z,101861.94
2019-04-16T05:12:17.834Z,101865.10
2019-04-16T05:14:57.104Z,101864.58
2019-04-16T05:17:27.615Z,101864.85
2019-04-16T05:19:59.368Z,101844.13
2019-04-16T05:22:32.921Z,101845.70
2019-04-16T05:25:07.793Z,101877.56
2019-04-16T05:27:41.076Z,101877.56
2019-04-16T05:30:13.324Z,101884.14
2019-04-16T05:32:45.498Z,101881.11
2019-04-16T05:35:17.349Z,101881.53
2019-04-16T05:37:51.487Z,101879.94
2019-04-16T05:40:22.806Z,101888.74
2019-04-16T05:42:55.823Z,101884.27
2019-04-16T05:45:28.225Z,101891.22
2019-04-16T05:48:00.104Z,101891.48
2019-04-16T05:50:31.877Z,101891.88
2019-04-16T05:53:05.468Z,101884.79
2019-04-16T05:55:49.658Z,101898.16
2019-04-16T05:58:18.337Z,101900.93
2019-04-16T06:01:04.133Z,101906.70
2019-04-16T06:06:00.878Z,101910.50
2019-04-16T06:08:32.568Z,101915.20
2019-04-16T06:11:04.603Z,101917.84
2019-04-16T06:13:46.774Z,101913.62
2019-04-16T06:16:23.936Z,101916.77
2019-04-16T06:19:08.500Z,101910.72
2019-04-16T06:21:58.610Z,101913.98
2019-04-16T06:24:35.772Z,101909.91
2019-04-16T06:27:09.588Z,101912.91
2019-04-16T06:29:47.260Z,101906.48
2019-04-16T06:32:18.871Z,101910.91
2019-04-16T06:35:08.626Z,101914.45
2019-04-16T06:37:54.096Z,101911.67
2019-04-16T06:40:39.585Z,101915.21
2019-04-16T06:43:25.234Z,101911.63
2019-04-16T06:45:55.501Z,101914.08
2019-04-16T06:48:28.827Z,101915.14
2019-04-16T06:51:18.404Z,101908.93
2019-04-16T06:53:49.935Z,101904.58
2019-04-16T06:56:40.355Z,101915.20
2019-04-16T06:59:17.657Z,101912.28
2019-04-16T07:02:01.033Z,101916.83
2019-04-16T07:04:37.223Z,101913.28
2019-04-16T07:07:38.364Z,101916.38
2019-04-16T07:10:04.764Z,101914.17
2019-04-16T07:12:45.583Z,101915.69
2019-04-16T07:15:22.385Z,101914.87
2019-04-16T07:17:52.156Z,101912.59
2019-04-16T07:20:23.986Z,101917.53
2019-04-16T07:22:55.789Z,101910.94
2019-04-16T07:25:29.572Z,101913.25
2019-04-16T07:28:04.556Z,101911.87
2019-04-16T07:30:43.887Z,101907.87
2019-04-16T07:33:35.484Z,101914.68
2019-04-16T07:36:29.286Z,101913.44
2019-04-16T07:39:18.000Z,101918.98
2019-04-16T07:41:50.790Z,101913.39
2019-04-16T07:44:45.844Z,101924.64
2019-04-16T07:47:23.909Z,101923.73
2019-04-16T07:50:00.502Z,101919.17
2019-04-16T07:52:50.406Z,101919.48
2019-04-16T07:55:27.487Z,101921.05
2019-04-16T07:58:00.410Z,101926.52
2019-04-16T08:00:32.410Z,101929.82
2019-04-16T08:03:07.053Z,101926.56
2019-04-16T08:05:41.202Z,101925.39
2019-04-16T08:08:15.011Z,101929.50
2019-04-16T08:10:46.872Z,101931.00
2019-04-16T08:13:22.503Z,101930.63
2019-04-16T08:15:56.727Z,101923.95
2019-04-16T08:18:27.901Z,101924.63
2019-04-16T08:21:10.165Z,101922.13
2019-04-16T08:23:44.265Z,101924.12
2019-04-16T08:26:34.072Z,101924.05
2019-04-16T08:29:05.837Z,101917.48
2019-04-16T08:31:44.527Z,101916.64
2019-04-16T08:34:33.096Z,101917.89
2019-04-16T08:37:07.976Z,101918.23
2019-04-16T08:39:39.837Z,101913.68
2019-04-16T08:42:11.958Z,101914.11
2019-04-16T08:44:43.780Z,101915.55
2019-04-16T08:47:21.429Z,101914.13
2019-04-16T08:50:12.205Z,101908.45
2019-04-16T08:52:56.676Z,101916.30
2019-04-16T08:55:28.438Z,101903.09
2019-04-16T08:58:06.046Z,101906.44
2019-04-16T09:00:39.711Z,101904.37
2019-04-16T09:03:11.484Z,101901.92
2019-04-16T09:05:43.254Z,101895.09
2019-04-16T09:08:28.388Z,101896.61
2019-04-16T09:11:23.527Z,101899.94
2019-04-16T09:14:08.771Z,101892.56
2019-04-16T09:16:57.188Z,101896.09
2019-04-16T09:19:31.926Z,101895.66
2019-04-16T09:22:09.220Z,101894.84
2019-04-16T09:24:59.069Z,101898.80
2019-04-16T09:27:44.694Z,101899.38
2019-04-16T09:30:27.245Z,101904.92
2019-04-16T09:33:03.543Z,101895.13
2019-04-16T09:36:03.710Z,101901.72
2019-04-16T09:38:49.144Z,101899.03
2019-04-16T09:41:36.955Z,101899.79
2019-04-16T09:44:08.937Z,101897.94
2019-04-16T09:46:51.267Z,101905.92
2019-04-16T09:49:20.182Z,101897.74
2019-04-16T09:51:52.088Z,101896.60
2019-04-16T09:54:26.438Z,101888.50
2019-04-16T09:56:59.735Z,101895.00
2019-04-16T09:59:36.597Z,101894.43
2019-04-16T10:02:11.143Z,101886.35
2019-04-16T10:04:52.022Z,101886.42
2019-04-16T10:07:23.950Z,101889.27
2019-04-16T10:09:55.648Z,101886.86
2019-04-16T10:12:30.152Z,101885.72
2019-04-16T10:15:11.138Z,101873.89
2019-04-16T10:17:45.818Z,101886.19
2019-04-16T10:20:30.034Z,101878.91
2019-04-16T10:23:04.589Z,101880.41
2019-04-16T10:25:53.776Z,101873.12
2019-04-16T10:28:44.598Z,101877.17
2019-04-16T10:31:34.963Z,101866.42
2019-04-16T10:34:06.688Z,101870.47
2019-04-16T10:36:47.280Z,101870.97
2019-04-16T10:39:18.895Z,101862.20
2019-04-16T10:41:56.480Z,101864.37
2019-04-16T10:44:37.260Z,101862.70
2019-04-16T10:47:26.932Z,101861.86
2019-04-16T10:50:09.518Z,101860.28
2019-04-16T10:52:59.147Z,101858.89
2019-04-16T10:55:50.199Z,101860.15
2019-04-16T10:58:42.758Z,101862.94
2019-04-16T11:01:17.378Z,101859.30
2019-04-16T11:03:50.930Z,101867.69
2019-04-16T11:06:47.567Z,101853.91
2019-04-16T11:09:37.703Z,101865.61
2019-04-16T11:12:09.787Z,101859.80
2019-04-16T11:14:54.425Z,101851.98
2019-04-16T11:17:29.381Z,101850.72
2019-04-16T11:20:06.184Z,101849.08
2019-04-16T11:22:56.204Z,101848.41
2019-04-16T11:25:31.548Z,101850.97
2019-04-16T11:28:06.428Z,101856.78
2019-04-16T11:30:42.799Z,101853.28
2019-04-16T11:33:14.888Z,101846.89
2019-04-16T11:35:56.362Z,101854.36
2019-04-16T11:38:28.449Z,101852.52
2019-04-16T11:41:06.692Z,101854.07
2019-04-16T11:43:38.747Z,101845.09
2019-04-16T11:46:28.350Z,101848.88
2019-04-16T11:49:17.828Z,101848.36
2019-04-16T11:51:55.434Z,101843.95
2019-04-16T11:54:27.239Z,101846.63
2019-04-16T11:57:00.248Z,101847.03
2019-04-16T11:59:38.214Z,101836.61
2019-04-16T12:02:27.975Z,101837.73
2019-04-16T12:05:04.160Z,101851.76
2019-04-16T12:07:55.334Z,101839.66
2019-04-16T12:10:41.510Z,101834.67
2019-04-16T12:13:34.106Z,101827.40
2019-04-16T12:16:28.552Z,101818.92
2019-04-16T12:19:18.145Z,101829.17
2019-04-16T12:22:15.083Z,101822.75
2019-04-16T12:24:51.212Z,101811.77
2019-04-16T12:27:34.318Z,101800.20
2019-04-16T12:30:30.192Z,101812.27
2019-04-16T12:33:19.492Z,101808.41
2019-04-16T12:36:12.826Z,101818.00
2019-04-16T12:39:00.898Z,101798.39
2019-04-16T12:42:06.140Z,101792.56
2019-04-16T12:44:45.670Z,101781.05
2019-04-16T12:47:24.055Z,101793.60
2019-04-16T12:50:18.942Z,101790.33
2019-04-16T12:53:02.677Z,101791.97
2019-04-16T12:55:57.258Z,101783.53
2019-04-16T12:58:50.696Z,101789.11
2019-04-16T13:01:23.855Z,101777.81
2019-04-16T13:04:17.180Z,101779.03
2019-04-16T13:06:53.444Z,101782.55
2019-04-16T13:09:39.174Z,101774.91
2019-04-16T13:12:32.491Z,101776.98
2019-04-16T13:15:26.263Z,101772.23
2019-04-16T13:18:19.979Z,101770.98
2019-04-16T13:21:10.834Z,101771.42
2019-04-16T13:24:02.248Z,101777.68
2019-04-16T13:26:53.372Z,101777.42
2019-04-16T13:29:29.404Z,101773.44
2019-04-16T13:31:59.336Z,101768.94
2019-04-16T13:34:34.784Z,101762.77
2019-04-16T13:37:06.631Z,101747.42
2019-04-16T13:39:40.484Z,101748.77
2019-04-16T13:42:12.619Z,101751.92
2019-04-16T13:44:49.067Z,101760.52
2019-04-16T13:47:20.916Z,101759.59
2019-04-16T13:50:02.592Z,101753.26
2019-04-16T13:52:33.480Z,101752.72
2019-04-16T13:55:25.261Z,101749.55
2019-04-16T13:58:07.397Z,101752.25
2019-04-16T14:01:08.891Z,101745.42
2019-04-16T14:03:38.285Z,101746.33
2019-04-16T14:06:12.832Z,101748.09
2019-04-16T14:08:45.574Z,101742.10
2019-04-16T14:11:20.579Z,101738.63
2019-04-16T14:13:52.635Z,101747.30
2019-04-16T14:16:24.409Z,101750.77
2019-04-16T14:18:56.179Z,101747.95
2019-04-16T14:21:28.035Z,101741.47
2019-04-16T14:23:59.829Z,101734.84
2019-04-16T14:26:31.694Z,101745.45
2019-04-16T14:29:06.802Z,101743.11
2019-04-16T14:31:37.480Z,101744.75
2019-04-16T14:34:20.722Z,101737.77
2019-04-16T14:36:53.184Z,101746.84
2019-04-16T14:39:31.061Z,101741.32
2019-04-16T14:42:03.140Z,101724.56
2019-04-16T14:44:52.700Z,101744.61
2019-04-16T14:47:24.621Z,101742.27
2019-04-16T14:49:57.909Z,101739.44
2019-04-16T14:52:29.954Z,101739.44
2019-04-16T14:55:03.548Z,101738.80
2019-04-16T14:57:39.784Z,101738.93
2019-04-16T15:00:28.181Z,101735.44
2019-04-16T15:03:01.661Z,101704.87
2019-04-16T15:05:35.168Z,101704.87
2019-04-16T15:08:08.762Z,101735.91
2019-04-16T15:10:58.031Z,101739.50
2019-04-16T15:13:34.251Z,101738.87
2019-04-16T15:16:21.261Z,101738.87
2019-04-16T15:18:52.070Z,101740.23
2019-04-16T15:21:43.043Z,101713.34
2019-04-16T15:24:16.475Z,101736.81
2019-04-16T15:26:54.271Z,101742.09
2019-04-16T15:29:31.356Z,101736.78
2019-04-16T15:32:19.932Z,101746.27
2019-04-16T15:34:53.352Z,101732.76
2019-04-16T15:37:26.795Z,101740.30
2019-04-16T15:40:00.233Z,101745.81
2019-04-16T15:42:40.859Z,101739.13
2019-04-16T15:45:14.858Z,101738.94
2019-04-16T15:48:06.549Z,101744.45
2019-04-16T15:50:45.901Z,101737.64
2019-04-16T15:53:25.423Z,101741.53
2019-04-16T15:55:59.105Z,101745.16
2019-04-16T15:58:32.781Z,101750.41
2019-04-16T16:01:21.686Z,101753.73
2019-04-16T16:04:10.406Z,101751.44
2019-04-16T16:06:48.796Z,101749.61
2019-04-16T16:09:31.209Z,101757.11
2019-04-16T16:12:10.992Z,101758.58
2019-04-16T16:14:43.063Z,101760.33
2019-04-16T16:17:16.014Z,101759.17
2019-04-16T16:19:48.754Z,101772.75
2019-04-16T16:22:20.816Z,101770.80
2019-04-16T16:24:52.674Z,101767.80
2019-04-16T16:27:24.563Z,101763.28
2019-04-16T16:29:56.277Z,101771.71
2019-04-16T16:32:28.083Z,101766.55
2019-04-16T16:34:59.863Z,101768.63
2019-04-16T16:37:33.949Z,101784.62
2019-04-16T16:40:07.292Z,101776.05
2019-04-16T16:42:39.308Z,101778.83
2019-04-16T16:45:11.188Z,101789.88
2019-04-16T16:47:43.077Z,101783.44
2019-04-16T16:50:15.039Z,101789.27
2019-04-16T16:53:04.904Z,101789.59
2019-04-16T16:55:38.473Z,101792.69
2019-04-16T16:58:12.173Z,101796.23
2019-04-16T17:01:02.643Z,101794.86
2019-04-16T17:03:42.311Z,101792.11
2019-04-16T17:06:15.744Z,101796.91
2019-04-16T17:08:47.558Z,101794.16
2019-04-16T17:11:19.271Z,101796.88
2019-04-16T17:13:51.793Z,101804.83
2019-04-16T17:16:24.400Z,101805.41
2019-04-16T17:18:56.668Z,101798.67
2019-04-16T17:21:28.822Z,101811.98
2019-04-16T17:24:00.713Z,101808.64
2019-04-16T17:26:33.009Z,101816.70
2019-04-16T17:29:05.282Z,101820.29
2019-04-16T17:31:37.625Z,101817.96
2019-04-16T17:34:09.544Z,101819.20
2019-04-16T17:36:41.574Z,101827.27
2019-04-16T17:39:15.817Z,101834.27
2019-04-16T17:41:50.400Z,101831.91
2019-04-16T17:44:27.447Z,101835.53
2019-04-16T17:47:01.468Z,101834.08
2019-04-16T17:49:54.786Z,101837.56
2019-04-16T17:52:31.278Z,101836.52
2019-04-16T17:55:20.703Z,101835.47
2019-04-16T17:57:57.157Z,101844.73
2019-04-16T18:00:46.695Z,101844.52
2019-04-16T18:03:23.086Z,101845.77
2019-04-16T18:06:14.796Z,101849.95
2019-04-16T18:09:04.901Z,101845.87
2019-04-16T18:11:44.717Z,101854.52
2019-04-16T18:14:17.078Z,101858.70
2019-04-16T18:16:54.309Z,101860.40
2019-04-16T18:19:27.469Z,101862.52
2019-04-16T18:22:04.367Z,101866.98
2019-04-16T18:24:42.242Z,101870.67
2019-04-16T18:27:29.159Z,101872.94
2019-04-16T18:30:07.212Z,101876.86
2019-04-16T18:32:58.524Z,101880.38
2019-04-16T18:35:32.039Z,101880.13
2019-04-16T18:38:07.047Z,101883.85
2019-04-16T18:40:44.437Z,101884.03
2019-04-16T18:43:18.478Z,101887.19
2019-04-16T18:45:52.404Z,101890.83
2019-04-16T18:48:25.150Z,101891.39
2019-04-16T18:50:59.958Z,101895.26
2019-04-16T18:53:30.490Z,101897.98
2019-04-16T18:56:02.361Z,101894.85
2019-04-16T18:58:34.344Z,101908.27
2019-04-16T19:01:10.419Z,101909.78
2019-04-16T19:03:42.289Z,101914.95
2019-04-16T19:06:14.379Z,101915.38
2019-04-16T19:08:47.798Z,101919.10
2019-04-16T19:11:20.462Z,101924.94
2019-04-16T19:13:53.609Z,101921.91
2019-04-16T19:16:25.801Z,101929.09
2019-04-16T19:18:57.912Z,101930.69
2019-04-16T19:21:29.983Z,101930.11
2019-04-16T19:24:01.847Z,101932.19
2019-04-16T19:26:33.763Z,101939.48
2019-04-16T19:29:06.296Z,101934.92
2019-04-16T19:31:39.039Z,101939.53
2019-04-16T19:34:11.211Z,101947.72
2019-04-16T19:36:43.438Z,101949.38
2019-04-16T19:39:18.609Z,101954.69
2019-04-16T19:41:53.000Z,101951.63
2019-04-16T19:44:24.766Z,101954.28
2019-04-16T19:46:57.072Z,101952.33
2019-04-16T19:49:30.525Z,101954.20
2019-04-16T19:52:03.111Z,101962.44
2019-04-16T19:54:35.456Z,101969.88
2019-04-16T19:57:08.806Z,101967.53
2019-04-16T19:59:46.381Z,101967.37
2019-04-16T20:02:16.773Z,101966.34
2019-04-16T20:04:50.749Z,101969.80
2019-04-16T20:07:23.063Z,101976.33
2019-04-16T20:09:55.423Z,101977.14
2019-04-16T20:12:28.064Z,101972.74
2019-04-16T20:15:08.261Z,101977.61
2019-04-16T20:17:36.117Z,101978.43
2019-04-16T20:20:09.511Z,101977.59
2019-04-16T20:22:41.731Z,101979.97
2019-04-16T20:25:14.595Z,101978.00
2019-04-16T20:27:46.886Z,101979.33
2019-04-16T20:30:23.075Z,101982.58
2019-04-16T20:32:53.508Z,101987.11
2019-04-16T20:35:25.523Z,101989.08
2019-04-16T20:37:57.367Z,101986.83
2019-04-16T20:40:29.147Z,101984.11
2019-04-16T20:43:01.108Z,101989.30
2019-04-16T20:45:33.069Z,101988.59
2019-04-16T20:48:05.349Z,101991.86
2019-04-16T20:50:37.291Z,101998.48
2019-04-16T20:53:09.111Z,102000.91
2019-04-16T20:55:40.893Z,102007.09
2019-04-16T20:58:14.753Z,102004.23
2019-04-16T21:00:47.887Z,102011.77
2019-04-16T21:03:22.336Z,102009.63
2019-04-16T21:05:59.043Z,102011.45
2019-04-16T21:08:26.885Z,102012.87
2019-04-16T21:10:59.991Z,102014.98
2019-04-16T21:13:32.076Z,102020.80
2019-04-16T21:16:03.995Z,102020.97
2019-04-16T21:18:35.938Z,102025.50
2019-04-16T21:21:07.729Z,102026.26
2019-04-16T21:23:40.660Z,102030.22
2019-04-16T21:26:12.466Z,102026.26
2019-04-16T21:28:58.521Z,102035.91
2019-04-16T21:31:33.055Z,102028.99
2019-04-16T21:34:09.360Z,102035.84
2019-04-16T21:36:43.504Z,102036.03
2019-04-16T21:39:25.905Z,102030.48
2019-04-16T21:42:00.916Z,102023.94
2019-04-16T21:44:31.260Z,102029.34
2019-04-16T21:47:03.267Z,102028.97
2019-04-16T21:49:38.758Z,102035.93
2019-04-16T21:52:08.603Z,102034.38
2019-04-16T21:54:40.534Z,102036.28
2019-04-16T21:57:13.260Z,102042.06
2019-04-16T21:59:45.958Z,102033.11
2019-04-16T22:02:25.114Z,102034.63
2019-04-16T22:04:56.973Z,102040.27
2019-04-16T22:07:29.095Z,102036.94
2019-04-16T22:10:02.963Z,102046.44
2019-04-16T22:12:34.838Z,102059.44
2019-04-16T22:15:07.569Z,102050.14
2019-04-16T22:17:39.452Z,102055.77
2019-04-16T22:20:14.695Z,102055.77
2019-04-16T22:22:50.438Z,102048.09
2019-04-16T22:25:27.795Z,102054.00
2019-04-16T22:28:01.195Z,102049.83
2019-04-16T22:30:34.163Z,102055.03
2019-04-16T22:33:07.749Z,102053.89
2019-04-16T22:35:39.596Z,102052.56
2019-04-16T22:38:14.288Z,102058.69
2019-04-16T22:40:51.548Z,102055.78
2019-04-16T22:43:27.917Z,102051.13
2019-04-16T22:46:03.053Z,102057.92
2019-04-16T22:48:37.428Z,102057.40
2019-04-16T22:51:14.515Z,102062.59
2019-04-16T22:53:46.521Z,102057.37
2019-04-16T22:56:18.808Z,102053.33
2019-04-16T22:58:52.405Z,102053.69
2019-04-16T23:01:25.987Z,102044.95
2019-04-16T23:04:03.813Z,102044.95
2019-04-16T23:06:38.683Z,102048.97
2019-04-16T23:09:09.553Z,102046.69
2019-04-16T23:11:41.430Z,102039.35
2019-04-16T23:14:18.003Z,102044.68
2019-04-16T23:16:49.764Z,102040.63
2019-04-16T23:19:26.099Z,102042.67
2019-04-16T23:22:00.108Z,102036.26
2019-04-16T23:24:32.592Z,102040.67
2019-04-16T23:27:05.694Z,102040.59
2019-04-16T23:29:41.411Z,102042.23
2019-04-16T23:32:13.296Z,102038.86
2019-04-16T23:34:45.421Z,102042.32
2019-04-16T23:37:23.286Z,102044.83
2019-04-16T23:39:55.947Z,102031.86
2019-04-16T23:42:27.723Z,102033.48
2019-04-16T23:45:13.207Z,102033.22
2019-04-16T23:47:46.773Z,102029.85
2019-04-16T23:50:25.979Z,102031.85
2019-04-16T23:53:08.978Z,102032.12
2019-04-16T23:55:50.132Z,102028.83
2019-04-16T23:58:28.544Z,102025.77
